createdAt,value
2022-12-18T02:42:37.524Z,99909.72
2022-12-18T02:45:04.358Z,99915.13
2022-12-18T02:47:33.851Z,99920.91
2022-12-18T02:50:15.012Z,99913.66
2022-12-18T02:53:19.419Z,99919.00
2022-12-18T02:56:14.943Z,99928.53
2022-12-18T02:58:57.191Z,99933.81
2022-12-18T03:01:32.503Z,99939.50
2022-12-18T03:04:05.495Z,99953.00
2022-12-18T03:06:41.122Z,99961.47
2022-12-18T03:09:12.066Z,99965.34
2022-12-18T03:12:01.489Z,99967.88
2022-12-18T03:14:32.083Z,99974.66
2022-12-18T03:17:02.894Z,99988.69
2022-12-18T03:19:33.029Z,99977.91
2022-12-18T03:22:04.636Z,99986.44
2022-12-18T03:24:34.208Z,99980.41
2022-12-18T03:27:03.773Z,99988.59
2022-12-18T03:29:35.547Z,99984.44
2022-12-18T03:32:30.516Z,99985.44
2022-12-18T03:35:01.483Z,100003.59
2022-12-18T03:37:28.038Z,99995.34
2022-12-18T03:39:54.605Z,99997.97
2022-12-18T03:42:53.936Z,100001.25
2022-12-18T03:45:20.419Z,100013.25
2022-12-18T03:47:59.001Z,100002.00
2022-12-18T03:50:25.419Z,100011.78
2022-12-18T03:53:28.609Z,100019.81
2022-12-18T03:55:57.416Z,100024.06
2022-12-18T03:58:27.417Z,100037.59
2022-12-18T04:00:57.407Z,100034.72
2022-12-18T04:03:26.627Z,100045.38
2022-12-18T04:05:55.198Z,100045.38
2022-12-18T04:08:22.877Z,100042.75
2022-12-18T04:10:49.379Z,100056.66
2022-12-18T04:13:28.557Z,100053.75
2022-12-18T04:15:55.117Z,100058.78
2022-12-18T04:18:21.679Z,100054.41
2022-12-18T04:20:48.210Z,100061.44
2022-12-18T04:23:14.858Z,100052.66
2022-12-18T04:25:41.357Z,100064.44
2022-12-18T04:28:07.967Z,100071.69
2022-12-18T04:30:34.482Z,100072.81
2022-12-18T04:33:00.957Z,100077.22
2022-12-18T04:35:27.714Z,100088.22
2022-12-18T04:37:54.213Z,100098.75
2022-12-18T04:40:20.695Z,100097.63
2022-12-18T04:42:47.274Z,100099.66
2022-12-18T04:45:13.885Z,100111.16
2022-12-18T04:47:40.393Z,100113.06
2022-12-18T04:50:07.338Z,100116.06
2022-12-18T04:52:33.884Z,100109.28
2022-12-18T04:55:00.395Z,100120.31
2022-12-18T04:57:27.202Z,100123.31
2022-12-18T04:59:53.725Z,100130.31
2022-12-18T05:02:20.312Z,100119.78
2022-12-18T05:04:46.900Z,100128.81
2022-12-18T05:07:13.362Z,100138.97
2022-12-18T05:09:39.831Z,100136.81
2022-12-18T05:12:06.645Z,100151.63
2022-12-18T05:14:33.132Z,100144.59
2022-12-18T05:17:01.188Z,100154.50
2022-12-18T05:19:27.942Z,100183.16
2022-12-18T05:21:54.427Z,100150.34
2022-12-18T05:24:20.920Z,100155.22
2022-12-18T05:26:47.446Z,100171.13
2022-12-18T05:29:14.190Z,100176.16
2022-12-18T05:31:41.034Z,100179.41
2022-12-18T05:34:09.571Z,100188.94
2022-12-18T05:36:37.403Z,100193.47
2022-12-18T05:39:04.213Z,100201.09
2022-12-18T05:41:30.995Z,100209.59
2022-12-18T05:43:57.670Z,100213.59
2022-12-18T05:46:25.232Z,100215.34
2022-12-18T05:48:52.083Z,100222.72
2022-12-18T05:51:21.290Z,100218.63
2022-12-18T05:53:47.795Z,100211.94
2022-12-18T05:56:17.263Z,100228.47
2022-12-18T05:58:43.876Z,100247.09
2022-12-18T06:01:16.833Z,100247.97
2022-12-18T06:03:43.886Z,100245.72
2022-12-18T06:06:23.302Z,100261.75
2022-12-18T06:08:50.462Z,100269.16
2022-12-18T06:11:20.465Z,100270.63
2022-12-18T06:13:47.626Z,100277.25
2022-12-18T06:16:14.221Z,100273.56
2022-12-18T06:18:40.765Z,100286.56
2022-12-18T06:21:07.498Z,100281.13
2022-12-18T06:23:34.014Z,100280.53
2022-12-18T06:26:05.421Z,100280.47
2022-12-18T06:28:32.151Z,100295.25
2022-12-18T06:30:58.675Z,100294.88
2022-12-18T10:29:49.256Z,100588.69
2022-12-18T10:32:19.312Z,100588.31
2022-12-18T10:34:54.072Z,100582.09
2022-12-18T10:37:27.551Z,100594.03
2022-12-18T10:40:22.747Z,100596.38
2022-12-18T10:43:05.407Z,100596.66
2022-12-18T10:45:32.132Z,100584.59
2022-12-18T10:47:59.076Z,100603.72
2022-12-18T10:50:53.958Z,100602.50
2022-12-18T10:53:27.368Z,100598.25
2022-12-18T10:55:56.902Z,100592.78
2022-12-18T10:58:34.063Z,100605.72
2022-12-18T11:01:18.852Z,100613.41
2022-12-18T11:03:47.791Z,100611.44
2022-12-18T11:06:15.683Z,100614.28
2022-12-18T11:08:44.446Z,100623.72
2022-12-18T11:11:22.756Z,100620.16
2022-12-18T11:13:57.102Z,100635.59
2022-12-18T11:16:24.899Z,100636.94
2022-12-18T11:18:51.911Z,100643.44
2022-12-18T11:21:18.491Z,100641.56
2022-12-18T11:23:51.508Z,100651.88
2022-12-18T11:26:18.705Z,100654.91
2022-12-18T11:28:47.923Z,100659.22
2022-12-18T11:31:38.740Z,100665.53
2022-12-18T11:34:34.279Z,100658.19
2022-12-18T11:37:04.111Z,100668.06
2022-12-18T11:39:43.519Z,100662.31
2022-12-18T11:42:17.598Z,100683.53
2022-12-18T11:44:48.856Z,100688.53
2022-12-18T11:47:52.630Z,100684.41
2022-12-18T11:50:31.322Z,100690.59
2022-12-18T11:53:01.603Z,100687.47
2022-12-18T11:55:35.024Z,100686.59
2022-12-18T11:58:11.984Z,100695.31
2022-12-18T12:01:32.432Z,100697.19
2022-12-18T12:04:27.360Z,100696.47
2022-12-18T12:07:15.955Z,100713.84
2022-12-18T12:09:51.948Z,100702.09
2022-12-18T12:12:48.754Z,100717.13
2022-12-18T12:15:36.915Z,100707.84
2022-12-18T12:18:32.996Z,100711.81
2022-12-18T12:21:05.294Z,100721.81
2022-12-18T12:23:35.004Z,100717.56
2022-12-18T12:26:24.930Z,100725.34
2022-12-18T12:29:10.759Z,100724.03
2022-12-18T12:32:16.305Z,100743.00
2022-12-18T12:35:17.572Z,100741.84
2022-12-18T12:38:05.794Z,100748.03
2022-12-18T12:40:58.857Z,100749.63
2022-12-18T12:43:50.960Z,100745.94
2022-12-18T12:46:22.065Z,100748.00
2022-12-18T12:48:53.538Z,100757.75
2022-12-18T12:51:24.665Z,100762.59
2022-12-18T12:53:53.853Z,100765.97
2022-12-18T12:56:22.441Z,100780.25
2022-12-18T12:59:26.190Z,100784.53
2022-12-18T13:02:06.204Z,100780.09
2022-12-18T13:04:39.803Z,100787.03
2022-12-18T13:07:27.959Z,100795.84
2022-12-18T13:10:15.492Z,100797.63
2022-12-18T13:12:57.912Z,100802.63
2022-12-18T13:15:44.238Z,100806.47
2022-12-18T13:18:20.062Z,100816.63
2022-12-18T13:21:06.754Z,100815.75
2022-12-18T13:23:40.955Z,100821.31
2022-12-18T13:26:08.676Z,100837.38
2022-12-18T13:28:47.416Z,100846.34
2022-12-18T13:31:15.200Z,100841.00
2022-12-18T13:34:02.014Z,100848.25
2022-12-18T13:36:32.330Z,100838.06
2022-12-18T13:39:26.673Z,100851.16
2022-12-18T13:42:05.964Z,100852.31
2022-12-18T13:47:35.909Z,100857.03
2022-12-18T13:50:24.794Z,100878.97
2022-12-18T13:52:53.423Z,100865.25
2022-12-18T13:55:21.697Z,100871.59
2022-12-18T13:57:48.292Z,100886.31
2022-12-18T14:00:30.093Z,100889.09
2022-12-18T15:02:19.746Z,100987.22
2022-12-18T15:04:46.398Z,100992.81
2022-12-18T15:07:26.560Z,101004.72
2022-12-18T15:10:17.042Z,101002.00
2022-12-18T15:12:49.581Z,101013.56
2022-12-18T15:15:34.565Z,101017.00
2022-12-18T15:18:12.732Z,101014.81
2022-12-18T15:21:08.946Z,101025.75
2022-12-18T15:23:44.581Z,101019.94
2022-12-18T15:26:14.181Z,101030.25
2022-12-18T15:28:40.766Z,101041.63
2022-12-18T15:31:07.578Z,101049.59
2022-12-18T15:33:37.645Z,101044.78
2022-12-18T15:36:09.552Z,101057.91
2022-12-18T15:38:36.342Z,101062.44
2022-12-18T15:41:03.780Z,101065.16
2022-12-18T15:43:37.541Z,101062.03
2022-12-18T15:46:15.827Z,101062.78
2022-12-18T15:48:45.110Z,101067.53
2022-12-18T15:51:32.768Z,101076.09
2022-12-18T15:54:01.978Z,101082.88
2022-12-18T15:56:47.344Z,101080.44
2022-12-18T15:59:17.994Z,101092.47
2022-12-18T16:01:47.157Z,101097.78
2022-12-18T16:04:15.404Z,101093.00
2022-12-18T16:07:13.431Z,101097.78
2022-12-18T16:09:31.112Z,101100.69
2022-12-18T16:11:57.769Z,101101.34
2022-12-18T16:14:29.537Z,101117.22
2022-12-18T16:17:10.034Z,101110.59
2022-12-18T16:19:36.557Z,101105.22
2022-12-18T16:22:03.080Z,101131.53
2022-12-18T16:24:32.939Z,101129.09
2022-12-18T16:27:01.023Z,101143.38
2022-12-18T16:29:29.338Z,101133.91
2022-12-18T16:32:00.470Z,101144.19
2022-12-18T16:34:29.930Z,101153.09
2022-12-18T16:37:07.346Z,101147.28
2022-12-18T16:39:35.370Z,101156.59
2022-12-18T16:42:05.307Z,101159.09
2022-12-18T16:44:33.332Z,101163.53
2022-12-18T16:47:02.934Z,101174.75
2022-12-18T16:49:30.250Z,101171.91
2022-12-18T16:51:56.997Z,101179.09
2022-12-18T16:54:24.014Z,101179.97
2022-12-18T16:56:51.616Z,101182.47
2022-12-18T16:59:18.655Z,101182.94
2022-12-18T17:01:45.267Z,101197.13
2022-12-18T17:04:11.931Z,101199.34
2022-12-18T17:06:44.603Z,101193.59
2022-12-18T17:09:14.949Z,101198.75
2022-12-18T17:11:42.877Z,101198.75
2022-12-18T17:14:14.996Z,101211.75
2022-12-18T17:16:41.887Z,101215.03
2022-12-18T17:19:13.563Z,101226.13
2022-12-18T17:21:40.264Z,101223.44
2022-12-18T17:24:07.732Z,101225.34
2022-12-18T17:26:34.320Z,101236.81
2022-12-18T17:29:00.885Z,101231.94
2022-12-18T17:31:29.889Z,101235.31
2022-12-18T17:33:57.332Z,101237.47
2022-12-18T17:36:24.857Z,101236.59
2022-12-18T17:38:55.155Z,101236.63
2022-12-18T17:41:22.348Z,101241.06
2022-12-18T17:44:03.734Z,101232.78
2022-12-18T17:46:31.949Z,101259.16
2022-12-18T17:48:59.472Z,101258.91
2022-12-18T17:51:26.707Z,101258.53
2022-12-18T17:53:53.463Z,101254.91
2022-12-18T17:56:22.688Z,101265.69
2022-12-18T17:58:50.466Z,101263.38
2022-12-18T18:01:20.995Z,101249.00
2022-12-18T18:03:49.228Z,101257.97
2022-12-18T18:06:20.936Z,101263.44
2022-12-18T18:32:12.861Z,101321.03
2022-12-18T18:34:39.348Z,101322.81
2022-12-18T18:37:05.962Z,101323.53
2022-12-18T18:39:32.728Z,101324.63
2022-12-18T18:41:59.412Z,101330.66
2022-12-18T18:44:26.564Z,101333.16
2022-12-18T18:46:58.156Z,101346.91
2022-12-18T18:49:28.341Z,101359.00
2022-12-18T18:51:55.798Z,101355.94
2022-12-18T18:54:22.701Z,101358.63
2022-12-18T18:59:36.784Z,101370.56
2022-12-18T19:02:04.701Z,101368.97
2022-12-18T19:04:33.010Z,101375.91
2022-12-18T19:06:59.607Z,101378.94
2022-12-18T19:09:27.671Z,101386.06
2022-12-18T19:12:13.767Z,101391.94
2022-12-18T19:14:40.282Z,101394.78
2022-12-18T19:17:06.811Z,101405.47
2022-12-18T19:19:33.799Z,101394.44
2022-12-18T19:22:00.888Z,101399.94
2022-12-18T19:24:27.505Z,101400.66
2022-12-18T19:26:55.371Z,101405.81
2022-12-18T19:29:24.755Z,101404.41
2022-12-18T19:31:51.332Z,101406.91
2022-12-18T19:34:17.828Z,101417.75
2022-12-18T19:36:44.421Z,101431.47
2022-12-18T19:39:15.165Z,101429.34
2022-12-18T19:41:42.957Z,101439.47
2022-12-18T19:44:11.986Z,101443.41
2022-12-18T19:46:41.671Z,101426.81
2022-12-18T19:49:10.648Z,101444.44
2022-12-18T19:51:37.796Z,101458.53
2022-12-18T19:54:04.772Z,101458.88
2022-12-18T19:56:33.837Z,101450.00
2022-12-18T19:59:01.054Z,101475.09
2022-12-18T20:01:29.632Z,101472.78
2022-12-18T20:03:57.404Z,101476.88
2022-12-18T20:06:31.804Z,101476.00
2022-12-18T20:09:01.388Z,101480.28
2022-12-18T20:11:30.036Z,101477.22
2022-12-18T20:13:57.365Z,101481.31
2022-12-18T20:16:24.366Z,101485.75
2022-12-18T20:18:51.422Z,101486.84
2022-12-18T20:21:18.924Z,101489.50
2022-12-18T20:23:46.119Z,101485.59
2022-12-18T20:26:12.956Z,101505.72
2022-12-18T20:28:40.700Z,101509.63
2022-12-18T20:31:13.858Z,101507.50
2022-12-18T20:33:41.652Z,101531.53
2022-12-18T20:36:14.256Z,101541.44
2022-12-18T20:38:42.208Z,101538.97
2022-12-18T20:41:11.938Z,101544.97
2022-12-18T20:43:39.202Z,101548.34
2022-12-18T20:46:09.206Z,101555.69
2022-12-18T20:48:36.317Z,101556.97
2022-12-18T20:51:06.297Z,101548.59
2022-12-18T20:53:34.219Z,101535.41
2022-12-18T20:56:02.197Z,101545.22
2022-12-18T20:58:28.779Z,101535.75
2022-12-18T21:01:13.609Z,101551.44
2022-12-18T21:03:41.591Z,101553.72
2022-12-18T21:06:10.305Z,101564.56
2022-12-18T21:08:37.570Z,101559.03
2022-12-18T21:11:37.660Z,101577.41
2022-12-18T21:14:09.931Z,101584.50
2022-12-18T21:16:36.931Z,101576.69
2022-12-18T21:19:03.818Z,101582.91
2022-12-18T21:21:30.349Z,101583.06
2022-12-18T21:24:04.801Z,101588.59
2022-12-18T21:26:31.958Z,101594.47
2022-12-18T21:29:00.874Z,101583.59
2022-12-18T21:31:30.447Z,101589.63
2022-12-18T21:34:02.348Z,101582.31
2022-12-18T21:36:29.628Z,101591.94
2022-12-18T21:38:56.982Z,101605.06
2022-12-18T21:41:43.359Z,101603.97
2022-12-18T21:44:15.906Z,101608.44
2022-12-18T21:46:52.972Z,101597.78
2022-12-18T21:49:22.593Z,101591.53
2022-12-18T21:51:50.563Z,101608.44
2022-12-18T21:54:17.724Z,101615.97
2022-12-18T21:56:57.471Z,101612.00
2022-12-18T21:59:33.203Z,101609.19
2022-12-18T22:02:04.424Z,101613.59
2022-12-18T22:04:31.160Z,101616.09
2022-12-18T22:07:00.720Z,101615.00
